createdAt,value
2022-08-22T14:57:19.982Z,24.04
2022-08-22T14:58:14.898Z,24.02
2022-08-22T14:59:15.672Z,24.00
2022-08-22T15:00:14.690Z,23.97
2022-08-22T15:01:15.433Z,23.95
2022-08-22T15:02:14.625Z,23.94
2022-08-22T15:03:14.695Z,23.89
2022-08-22T15:04:18.835Z,23.86
2022-08-22T15:05:14.648Z,23.85
2022-08-22T15:06:16.776Z,23.83
2022-08-22T15:07:15.869Z,23.83
2022-08-22T15:08:14.516Z,23.82
2022-08-22T15:09:14.494Z,23.80
2022-08-22T15:10:14.580Z,23.80
2022-08-22T15:11:15.542Z,23.79
2022-08-22T15:12:24.101Z,23.77
2022-08-22T15:13:37.346Z,23.77
2022-08-22T15:14:14.733Z,23.76
2022-08-22T15:15:14.479Z,23.75
2022-08-22T15:16:14.483Z,23.72
2022-08-22T15:17:14.519Z,23.72
2022-08-22T15:18:14.694Z,23.70
2022-08-22T15:19:15.246Z,23.68
2022-08-22T15:20:14.443Z,23.65
2022-08-22T15:21:14.510Z,23.64
2022-08-22T15:22:15.414Z,23.62
2022-08-22T15:23:14.421Z,23.61
2022-08-22T15:24:14.927Z,23.61
2022-08-22T15:25:15.026Z,23.58
2022-08-22T15:26:14.560Z,23.57
2022-08-22T15:27:14.302Z,23.55
2022-08-22T15:28:20.422Z,23.55
2022-08-22T15:29:15.461Z,23.52
2022-08-22T15:30:20.560Z,23.50
2022-08-22T15:31:15.459Z,23.49
2022-08-22T15:32:15.033Z,23.47
2022-08-22T15:33:14.250Z,23.46
2022-08-22T15:34:14.233Z,23.43
2022-08-22T15:35:14.569Z,23.42
2022-08-22T15:36:15.712Z,23.39
2022-08-22T15:37:16.510Z,23.38
2022-08-22T15:38:14.179Z,23.38
2022-08-22T15:39:14.155Z,23.34
2022-08-22T15:40:14.290Z,23.32
2022-08-22T15:41:14.117Z,23.34
2022-08-22T15:42:14.061Z,23.31
2022-08-22T15:43:14.050Z,23.31
2022-08-22T15:44:30.715Z,23.29
2022-08-22T15:45:15.107Z,23.27
2022-08-22T15:46:18.072Z,23.27
2022-08-22T15:47:25.517Z,23.26
2022-08-22T15:48:15.008Z,23.26
2022-08-22T15:49:13.968Z,23.24
2022-08-22T15:50:14.696Z,23.22
2022-08-22T15:51:13.999Z,23.19
2022-08-22T15:52:13.960Z,23.20
2022-08-22T15:53:13.980Z,23.17
2022-08-22T15:54:24.429Z,23.17
2022-08-22T15:55:14.915Z,23.15
2022-08-22T15:56:13.884Z,23.14
2022-08-22T15:57:13.916Z,23.12
2022-08-22T15:58:14.740Z,23.11
2022-08-22T15:59:13.881Z,23.09
2022-08-22T16:00:14.971Z,23.08
2022-08-22T16:01:19.090Z,23.07
2022-08-22T16:02:15.640Z,23.07
2022-08-22T16:03:14.420Z,23.07
2022-08-22T16:04:14.054Z,23.04
2022-08-22T16:05:14.219Z,23.01
2022-08-22T16:06:14.034Z,23.01
2022-08-22T16:07:13.790Z,22.97
2022-08-22T16:08:13.912Z,22.96
2022-08-22T16:09:14.078Z,22.94
2022-08-22T16:10:13.795Z,22.93
2022-08-22T16:11:14.114Z,22.92
2022-08-22T16:12:14.178Z,22.87
2022-08-22T16:13:13.669Z,22.87
2022-08-22T16:14:13.749Z,22.84
2022-08-22T16:15:17.857Z,22.83
2022-08-22T16:16:16.745Z,22.82
2022-08-22T16:17:15.711Z,22.80
2022-08-22T16:18:35.587Z,22.80
2022-08-22T16:19:13.680Z,22.77
2022-08-22T16:20:19.385Z,22.75
2022-08-22T16:21:13.657Z,22.74
2022-08-22T16:22:15.224Z,22.72
2022-08-22T16:23:16.558Z,22.69
2022-08-22T16:24:13.601Z,22.69
2022-08-22T16:25:13.612Z,22.68
2022-08-22T16:26:13.898Z,22.68
2022-08-22T16:27:13.741Z,22.67
2022-08-22T16:28:13.766Z,22.65
2022-08-22T16:29:18.003Z,22.67
2022-08-22T16:30:14.006Z,22.62
2022-08-22T16:31:15.381Z,22.62
2022-08-22T16:32:13.764Z,22.60
2022-08-22T16:33:23.023Z,22.57
2022-08-22T16:34:13.724Z,22.54
2022-08-22T16:35:13.513Z,22.53
2022-08-22T16:36:13.727Z,22.52
2022-08-22T16:37:15.729Z,22.52
2022-08-22T16:38:14.471Z,22.49
2022-08-22T16:41:12.579Z,22.44
2022-08-22T16:41:47.556Z,22.43
2022-08-22T16:42:47.322Z,22.41
2022-08-22T16:43:52.610Z,22.41
2022-08-22T16:44:47.858Z,22.39
2022-08-22T16:46:04.280Z,22.38
2022-08-22T16:46:54.184Z,22.37
2022-08-22T16:48:59.992Z,22.35
2022-08-22T16:50:01.537Z,22.34
2022-08-22T16:50:59.927Z,22.32
2022-08-22T16:52:01.394Z,22.29
2022-08-22T16:52:59.405Z,22.28
2022-08-22T16:54:13.000Z,22.27
2022-08-22T16:55:00.556Z,22.27
2022-08-22T16:56:00.863Z,22.27
2022-08-22T16:56:59.440Z,22.25
2022-08-22T16:58:07.268Z,22.25
2022-08-22T16:59:09.883Z,22.22
2022-08-22T17:00:00.667Z,22.22
2022-08-22T17:00:59.406Z,22.20
2022-08-22T17:01:59.410Z,22.20
2022-08-22T17:02:59.291Z,22.19
2022-08-22T17:04:05.495Z,22.16
2022-08-22T17:05:04.357Z,22.16
2022-08-22T17:06:00.211Z,22.16
2022-08-22T17:06:59.307Z,22.14
2022-08-22T17:08:00.702Z,22.13
2022-08-22T17:09:00.936Z,22.10
2022-08-22T17:09:59.276Z,22.09
2022-08-22T17:10:59.524Z,22.09
2022-08-22T17:11:59.842Z,22.07
2022-08-22T17:13:00.136Z,22.09
2022-08-22T17:14:00.067Z,22.06
2022-08-22T17:14:59.309Z,22.07
2022-08-22T17:23:35.239Z,21.97
2022-08-22T17:24:41.091Z,21.95
2022-08-22T17:25:43.930Z,21.95
2022-08-22T17:26:18.991Z,21.92
2022-08-22T17:27:18.517Z,21.91
2022-08-22T17:28:21.634Z,21.88
2022-08-22T17:29:22.839Z,21.88
2022-08-22T17:30:19.560Z,21.85
2022-08-22T17:31:20.033Z,21.83
2022-08-22T17:32:18.854Z,21.81
2022-08-22T17:33:18.461Z,21.79
2022-08-22T17:34:19.284Z,21.76
2022-08-22T17:35:40.318Z,21.75
2022-08-22T17:36:40.585Z,21.72
2022-08-22T17:37:40.479Z,21.71
2022-08-22T17:38:18.384Z,21.67
2022-08-22T17:43:49.668Z,21.54
2022-08-22T17:44:53.172Z,21.54
2022-08-22T17:53:21.711Z,21.27
2022-08-22T17:55:08.105Z,21.21
2022-08-22T17:56:11.362Z,21.17
2022-08-22T17:57:11.121Z,21.13
2022-08-22T17:58:12.105Z,21.09
2022-08-22T17:59:08.306Z,21.06
2022-08-22T18:00:06.923Z,21.05
2022-08-22T18:01:07.045Z,21.02
2022-08-22T18:02:06.880Z,20.98
2022-08-22T18:03:06.972Z,20.95
2022-08-22T18:04:11.223Z,20.91
2022-08-22T18:05:06.992Z,20.90
2022-08-22T18:06:16.739Z,20.86
2022-08-22T18:07:06.881Z,20.83
2022-08-22T18:09:14.128Z,20.77
2022-08-22T18:10:07.741Z,20.74
2022-08-22T18:12:02.275Z,20.69
2022-08-22T18:13:06.805Z,20.65
2022-08-22T18:14:05.011Z,20.62
2022-08-22T18:15:01.935Z,20.61
2022-08-22T18:16:01.883Z,20.56
2022-08-22T18:17:02.179Z,20.54
2022-08-22T18:18:02.003Z,20.51
2022-08-22T18:19:01.884Z,20.50
2022-08-22T18:20:06.086Z,20.49
2022-08-22T18:21:01.884Z,20.43
2022-08-22T18:22:01.831Z,20.42
2022-08-22T18:23:02.804Z,20.38
2022-08-22T18:24:01.776Z,20.34
2022-08-22T18:25:01.857Z,20.33
2022-08-22T18:26:02.775Z,20.28
2022-08-22T18:27:07.239Z,20.25
2022-08-22T18:28:10.437Z,20.24
2022-08-22T18:32:26.715Z,20.10
2022-08-22T18:33:26.136Z,20.08
2022-08-22T18:34:27.476Z,20.05
2022-08-22T18:35:25.367Z,20.02
2022-08-22T18:36:25.334Z,19.98
2022-08-22T18:37:25.695Z,19.94
2022-08-22T18:38:25.146Z,19.91
2022-08-22T18:39:25.263Z,19.88
2022-08-22T18:40:25.474Z,19.87
2022-08-22T18:41:27.366Z,19.84
